Time;durP1;ratioP1;P1;durP2;ratioP2;P2;SDS_P1;SDS_P2;PMS_P1;PMS_P2;Temp;Humidity;BMP_temperature;BMP_pressure;BME280_temperature;BME280_humidity;BME280_pressure;Samples;Min_cycle;Max_cycle;Signal;HPM_P1;HPM_P2
2022/09/09 00:00:54;;;;;;;8.13;2.22;;;;;;;26.72;40.83;100938.63;5072384;28;20103;-50
2022/09/09 00:03:27;;;;;;;9.52;2.53;;;;;;;26.66;41.17;100938.59;5072291;28;20452;-48
2022/09/09 00:06:09;;;;;;;6.90;2.20;;;;;;;26.66;41.09;100936.88;5072063;28;20471;-51
2022/09/09 00:08:54;;;;;;;8.45;2.33;;;;;;;26.73;40.49;100928.97;5072238;28;20059;-52
2022/09/09 00:11:45;;;;;;;8.65;2.65;;;;;;;26.63;41.21;100939.50;5039249;28;20127;-49
2022/09/09 00:14:36;;;;;;;8.75;2.53;;;;;;;26.68;40.88;100942.13;5063121;28;20060;-48
2022/09/09 00:17:10;;;;;;;9.85;3.22;;;;;;;26.79;40.47;100929.91;5061643;28;20040;-47
2022/09/09 00:20:09;;;;;;;7.72;2.22;;;;;;;26.59;40.59;100914.06;5072147;28;20032;-51
2022/09/09 00:22:44;;;;;;;10.23;2.85;;;;;;;26.66;40.69;100928.97;5029541;28;20516;-49
2022/09/09 00:25:17;;;;;;;6.90;2.08;;;;;;;26.66;40.72;100926.34;5039820;28;20052;-52
2022/09/09 00:27:48;;;;;;;7.05;2.20;;;;;;;26.54;40.90;100929.84;5033117;28;20201;-47
2022/09/09 00:30:22;;;;;;;8.98;2.13;;;;;;;26.58;40.97;100930.72;5049927;28;20025;-52
2022/09/09 00:32:57;;;;;;;11.75;2.90;;;;;;;26.55;40.86;100930.72;5053938;28;20044;-49
2022/09/09 00:35:32;;;;;;;7.90;2.60;;;;;;;26.65;40.63;100923.69;5053702;28;20060;-47
2022/09/09 00:38:12;;;;;;;8.90;2.33;;;;;;;26.47;41.38;100929.81;5053767;28;20116;-51
2022/09/09 00:40:50;;;;;;;6.75;2.20;;;;;;;26.34;41.29;100927.19;5053860;28;20040;-52
2022/09/09 00:43:30;;;;;;;8.98;1.92;;;;;;;26.29;41.70;100931.53;5036838;28;20115;-47
2022/09/09 00:46:23;;;;;;;6.85;1.85;;;;;;;26.50;41.26;100928.06;5020805;28;20025;-51
2022/09/09 00:49:30;;;;;;;9.73;2.67;;;;;;;26.56;40.96;100927.19;5047264;28;20037;-47
2022/09/09 00:52:27;;;;;;;9.35;2.30;;;;;;;26.43;41.18;100931.56;5049889;28;20508;-49
2022/09/09 00:55:21;;;;;;;7.32;2.28;;;;;;;26.50;41.22;100919.31;5075345;28;20072;-48
2022/09/09 00:57:53;;;;;;;7.75;2.28;;;;;;;26.48;41.11;100928.94;5070722;28;20140;-48
2022/09/09 01:00:23;;;;;;;8.35;2.40;;;;;;;26.50;40.84;100928.06;5075425;28;20024;-46
2022/09/09 01:02:55;;;;;;;10.00;2.67;;;;;;;26.51;41.03;100927.19;5074362;28;20036;-47
2022/09/09 01:05:33;;;;;;;11.10;2.53;;;;;;;26.48;40.92;100921.91;5075235;28;20094;-46
2022/09/09 01:08:04;;;;;;;8.05;2.63;;;;;;;26.54;40.94;100928.97;5075278;28;20030;-47
2022/09/09 01:10:53;;;;;;;8.07;2.60;;;;;;;26.45;41.18;100929.84;5073749;28;20111;-47
2022/09/09 01:13:33;;;;;;;10.48;3.10;;;;;;;26.54;40.93;100924.56;5075019;28;20040;-47
2022/09/09 01:16:04;;;;;;;11.77;3.78;;;;;;;26.56;40.88;100924.56;5075487;28;20025;-47
2022/09/09 01:18:37;;;;;;;9.20;2.58;;;;;;;26.49;40.92;100921.03;5075426;28;20538;-49
2022/09/09 01:21:30;;;;;;;11.90;2.90;;;;;;;26.43;41.07;100922.78;5073629;28;20039;-49
2022/09/09 01:24:20;;;;;;;10.40;2.30;;;;;;;26.49;41.01;100926.31;5074975;28;20028;-49
2022/09/09 01:26:51;;;;;;;8.07;2.50;;;;;;;26.54;40.75;100926.34;5073769;28;20036;-51
2022/09/09 01:29:21;;;;;;;7.72;2.63;;;;;;;26.54;40.84;100929.84;5074756;28;20506;-51
2022/09/09 01:31:55;;;;;;;8.63;2.47;;;;;;;26.35;41.20;100926.31;5073251;28;20070;-50
2022/09/09 01:34:27;;;;;;;9.00;2.60;;;;;;;26.27;41.58;100933.28;5074911;28;20024;-51
2022/09/09 01:37:02;;;;;;;8.38;2.40;;;;;;;26.34;41.31;100929.81;5073459;28;20123;-51
2022/09/09 01:39:29;;;;;;;;;;;;;;;26.37;41.22;100940.34;5075062;28;20097;-53
2022/09/09 01:41:58;;;;;;;7.28;1.95;;;;;;;26.28;41.47;100932.41;5072774;28;19919;-49
2022/09/09 01:44:28;;;;;;;10.18;3.05;;;;;;;26.45;40.91;100934.19;5072881;28;20077;-50
2022/09/09 01:46:56;;;;;;;10.68;2.50;;;;;;;26.48;41.08;100934.22;5073072;28;20036;-50
2022/09/09 01:49:25;;;;;;;8.95;2.10;;;;;;;26.43;41.14;100939.47;5072764;28;20387;-49
2022/09/09 01:51:56;;;;;;;7.78;2.38;;;;;;;26.43;41.30;100938.56;5073134;28;20605;-50
2022/09/09 01:54:27;;;;;;;9.02;2.92;;;;;;;26.34;41.45;100936.81;5073452;28;20033;-51
2022/09/09 01:57:19;;;;;;;8.35;2.47;;;;;;;26.38;41.25;100938.56;5074259;28;20540;-51
2022/09/09 02:00:03;;;;;;;6.55;2.33;;;;;;;26.30;41.45;100930.66;5070583;28;20044;-50
2022/09/09 02:02:54;;;;;;;10.45;3.03;;;;;;;26.17;41.61;100940.25;5073065;28;20025;-51
2022/09/09 02:05:42;;;;;;;7.90;2.22;;;;;;;26.27;41.55;100940.31;5074105;28;20045;-51
2022/09/09 02:08:13;;;;;;;9.80;2.70;;;;;;;26.34;41.36;100942.97;5073732;28;20036;-51
2022/09/09 02:11:01;;;;;;;6.03;1.95;;;;;;;26.31;41.42;100936.81;5074014;28;20039;-47
2022/09/09 02:13:31;;;;;;;6.38;2.17;;;;;;;26.35;41.38;100946.44;5070377;28;20097;-52
2022/09/09 02:16:09;;;;;;;8.73;2.28;;;;;;;26.39;41.09;100945.59;5072601;28;20028;-50
2022/09/09 02:18:52;;;;;;;8.52;3.10;;;;;;;26.26;41.35;100933.28;5072660;28;20090;-50
2022/09/09 02:21:21;;;;;;;7.55;2.50;;;;;;;26.32;41.37;100944.69;5074076;28;20103;-48
2022/09/09 02:23:51;;;;;;;8.60;2.28;;;;;;;26.36;41.36;100950.84;5072540;28;20021;-46
2022/09/09 02:26:23;;;;;;;11.02;2.85;;;;;;;26.34;41.38;100950.84;5073629;28;20070;-47
2022/09/09 02:28:52;;;;;;;8.60;2.95;;;;;;;26.24;41.63;100956.94;5055737;28;20024;-49
2022/09/09 02:31:23;;;;;;;8.70;2.28;;;;;;;26.32;41.23;100960.47;5056020;28;20025;-50
2022/09/09 02:34:03;;;;;;;10.77;2.70;;;;;;;26.27;41.46;100950.81;5073506;28;20029;-46
2022/09/09 02:36:34;;;;;;;9.43;2.63;;;;;;;26.35;41.39;100951.72;5073376;28;20494;-51
2022/09/09 02:39:03;;;;;;;8.93;2.33;;;;;;;26.33;41.37;100948.19;5073407;28;20179;-49
2022/09/09 02:41:34;;;;;;;9.98;2.65;;;;;;;26.37;41.00;100940.34;5073618;28;20025;-48
2022/09/09 02:44:03;;;;;;;8.10;2.50;;;;;;;26.25;41.77;100948.16;5073553;28;20020;-47
2022/09/09 02:46:41;;;;;;;6.55;2.13;;;;;;;26.10;41.74;100946.34;5073200;28;20040;-49
2022/09/09 02:49:29;;;;;;;8.30;2.25;;;;;;;26.24;41.38;100952.56;5073091;28;20103;-47
2022/09/09 02:52:05;;;;;;;9.00;2.25;;;;;;;26.27;41.44;100956.94;5065092;28;20387;-47
2022/09/09 02:54:36;;;;;;;11.73;3.00;;;;;;;26.27;41.60;100956.94;5038758;28;20024;-46
2022/09/09 02:57:17;;;;;;;9.93;2.50;;;;;;;26.29;41.49;100964.84;5072988;28;20029;-46
2022/09/09 02:59:48;;;;;;;10.48;2.80;;;;;;;26.21;41.64;100962.19;5073252;28;20032;-46
2022/09/09 03:02:18;;;;;;;9.18;2.60;;;;;;;26.21;41.62;100960.44;5073007;28;20475;-50
2022/09/09 03:04:50;;;;;;;8.90;2.70;;;;;;;26.19;41.76;100958.69;5072705;28;20082;-47
2022/09/09 03:07:20;;;;;;;8.73;2.47;;;;;;;26.12;42.12;100963.06;5072934;28;20020;-48
2022/09/09 03:09:54;;;;;;;8.25;2.03;;;;;;;26.23;41.72;100974.47;5072927;28;20028;-46
2022/09/09 03:12:23;;;;;;;6.90;2.20;;;;;;;26.23;41.72;100963.97;5072862;28;20024;-46
2022/09/09 03:14:53;;;;;;;8.10;2.47;;;;;;;26.21;41.77;100965.69;5073008;28;20153;-47
2022/09/09 03:17:21;;;;;;;7.82;2.00;;;;;;;26.24;41.71;100964.81;5073045;28;20016;-46
2022/09/09 03:19:52;;;;;;;6.20;2.10;;;;;;;26.27;41.68;100971.84;5072951;28;20086;-46
2022/09/09 03:22:21;;;;;;;6.25;2.33;;;;;;;26.20;41.68;100963.06;5073125;28;20025;-48
2022/09/09 03:24:50;;;;;;;6.35;2.03;;;;;;;26.16;41.82;100972.69;5072710;28;20051;-51
2022/09/09 03:27:19;;;;;;;6.20;1.85;;;;;;;26.18;41.76;100967.44;5072857;28;20107;-50
2022/09/09 03:29:50;;;;;;;7.53;2.05;;;;;;;26.06;42.27;100963.84;5054749;28;20039;-51
2022/09/09 03:32:22;;;;;;;6.30;1.92;;;;;;;26.14;42.03;100965.66;5072954;28;20467;-51
2022/09/09 03:34:50;;;;;;;9.98;2.63;;;;;;;26.21;41.63;100970.94;5072616;28;20496;-51
2022/09/09 03:37:19;;;;;;;8.90;2.50;;;;;;;26.19;41.89;100971.84;5072892;28;20025;-47
2022/09/09 03:39:47;;;;;;;7.15;2.30;;;;;;;26.18;41.77;100954.31;5055168;28;20062;-49
2022/09/09 03:42:20;;;;;;;8.80;2.30;;;;;;;26.19;41.86;100972.69;5054905;28;20078;-49
2022/09/09 03:44:50;;;;;;;6.43;1.80;;;;;;;26.22;41.54;100972.72;5072701;28;20093;-51
2022/09/09 03:47:21;;;;;;;7.28;2.45;;;;;;;26.24;41.43;100970.06;5072712;28;20033;-51
2022/09/09 03:49:50;;;;;;;7.07;1.98;;;;;;;26.14;41.92;100973.56;5072558;28;20040;-49
2022/09/09 03:52:18;;;;;;;9.57;2.55;;;;;;;26.16;41.99;100974.44;5072333;28;20066;-49
2022/09/09 03:54:47;;;;;;;7.28;2.05;;;;;;;26.09;41.96;100969.13;5072280;28;20487;-51
2022/09/09 03:57:16;;;;;;;8.32;2.25;;;;;;;26.14;41.65;100971.81;5072285;28;20024;-49
2022/09/09 03:59:45;;;;;;;7.30;2.00;;;;;;;26.16;41.77;100974.44;5072335;28;20032;-48
2022/09/09 04:02:15;;;;;;;6.97;1.90;;;;;;;26.05;42.18;100967.38;5072631;28;20035;-49
2022/09/09 04:04:43;;;;;;;7.53;2.40;;;;;;;26.07;42.11;100962.09;5072178;28;20480;-47
2022/09/09 04:07:12;;;;;;;5.68;2.25;;;;;;;26.13;41.68;100970.06;5057669;28;20058;-51
2022/09/09 04:09:41;;;;;;;6.75;2.03;;;;;;;26.16;41.80;100977.94;5075856;28;20028;-50
2022/09/09 04:12:13;;;;;;;9.70;2.40;;;;;;;26.18;41.64;100977.97;5075861;28;20399;-48
2022/09/09 04:14:41;;;;;;;6.07;2.08;;;;;;;26.21;41.64;100978.84;5076463;28;20555;-50
2022/09/09 04:17:10;;;;;;;5.82;2.28;;;;;;;26.21;41.99;100976.22;5076332;28;20017;-50
2022/09/09 04:19:39;;;;;;;7.32;1.92;;;;;;;26.23;41.59;100987.63;5076289;28;20485;-49
2022/09/09 04:22:07;;;;;;;5.50;2.00;;;;;;;26.22;41.46;100977.09;5075937;28;20028;-49
2022/09/09 04:24:36;;;;;;;7.80;2.33;;;;;;;26.07;41.47;100962.09;5075933;28;20399;-48
2022/09/09 04:27:04;;;;;;;7.25;2.10;;;;;;;26.20;41.68;100984.97;5075862;28;20028;-47
2022/09/09 04:29:33;;;;;;;7.47;2.22;;;;;;;26.14;41.57;100978.81;5075843;28;20029;-48
2022/09/09 04:32:02;;;;;;;7.00;2.05;;;;;;;26.16;41.64;100984.97;5076121;28;20021;-52
2022/09/09 04:34:31;;;;;;;8.23;2.08;;;;;;;26.23;41.63;100981.47;5075912;28;20036;-51
2022/09/09 04:37:00;;;;;;;8.60;2.75;;;;;;;26.15;41.73;100981.44;5075758;28;20029;-51
2022/09/09 04:39:28;;;;;;;7.57;2.28;;;;;;;26.11;41.76;100984.94;5058615;28;20036;-48
2022/09/09 04:41:57;;;;;;;7.85;2.33;;;;;;;26.07;42.11;100988.41;5075813;28;20025;-47
2022/09/09 04:44:26;;;;;;;10.82;2.47;;;;;;;26.14;41.66;100981.44;5075542;28;20025;-49
2022/09/09 04:46:55;;;;;;;6.95;2.47;;;;;;;26.13;41.55;100984.94;5075768;28;20028;-48
2022/09/09 04:49:23;;;;;;;6.10;1.90;;;;;;;26.03;41.92;100977.00;5075618;28;20107;-47
2022/09/09 04:51:52;;;;;;;8.05;2.20;;;;;;;26.04;42.06;100985.75;5075277;28;20029;-51
2022/09/09 04:54:22;;;;;;;7.20;2.42;;;;;;;25.99;41.88;100977.84;5075704;28;20067;-50
2022/09/09 04:56:52;;;;;;;7.10;2.13;;;;;;;26.07;41.96;100983.13;5075249;28;20029;-46
2022/09/09 04:59:20;;;;;;;10.82;2.63;;;;;;;26.03;41.70;100978.72;5075420;28;20033;-47
2022/09/09 05:01:50;;;;;;;9.20;2.53;;;;;;;26.09;41.91;100984.03;5075719;28;20032;-48
2022/09/09 05:04:19;;;;;;;8.73;2.35;;;;;;;26.07;41.85;100993.66;5075460;28;20365;-49
2022/09/09 05:06:47;;;;;;;8.82;2.35;;;;;;;26.05;41.91;100993.66;5075196;28;20055;-48
2022/09/09 05:09:15;;;;;;;5.05;1.90;;;;;;;26.00;42.05;100990.13;5075067;28;20119;-47
2022/09/09 05:11:44;;;;;;;8.90;2.42;;;;;;;26.05;41.99;100988.41;5075348;28;20016;-47
2022/09/09 05:14:12;;;;;;;5.93;2.00;;;;;;;25.99;41.94;100992.72;5075306;28;20456;-47
2022/09/09 05:16:40;;;;;;;8.77;2.10;;;;;;;25.98;41.88;100980.47;5074419;28;20028;-48
2022/09/09 05:19:09;;;;;;;6.72;2.05;;;;;;;26.04;41.91;100984.00;5074428;28;20047;-47
2022/09/09 05:21:37;;;;;;;7.22;2.08;;;;;;;26.05;41.97;100993.66;5075204;28;20094;-50
2022/09/09 05:24:06;;;;;;;6.82;2.20;;;;;;;26.05;41.68;100991.03;5074824;28;20025;-48
2022/09/09 05:26:34;;;;;;;6.18;1.80;;;;;;;26.02;42.34;100998.00;5074815;28;20037;-48
2022/09/09 05:29:03;;;;;;;7.20;1.92;;;;;;;26.07;41.88;100994.50;5075318;28;20106;-50
2022/09/09 05:31:32;;;;;;;9.70;2.85;;;;;;;26.03;41.70;100994.50;5075144;28;20069;-51
2022/09/09 05:34:01;;;;;;;7.28;2.10;;;;;;;25.98;42.00;101006.75;5074877;28;20163;-49
2022/09/09 05:36:30;;;;;;;9.48;2.70;;;;;;;25.93;42.17;101010.25;5074842;28;20021;-51
2022/09/09 05:38:58;;;;;;;6.38;2.30;;;;;;;25.93;41.67;101010.25;5074773;28;20024;-50
2022/09/09 05:41:27;;;;;;;6.25;2.17;;;;;;;26.02;41.81;101016.41;5074662;28;20497;-50
2022/09/09 05:43:55;;;;;;;6.20;1.90;;;;;;;25.99;42.17;101022.53;5074658;28;20040;-52
2022/09/09 05:46:25;;;;;;;6.72;1.88;;;;;;;25.92;42.07;101033.88;5074618;28;20036;-52
2022/09/09 05:48:54;;;;;;;7.85;2.38;;;;;;;25.95;42.11;101031.25;5074768;28;20086;-51
2022/09/09 05:51:26;;;;;;;7.05;2.53;;;;;;;25.92;41.92;101026.88;5074509;28;20100;-51
2022/09/09 05:53:58;;;;;;;6.97;1.92;;;;;;;25.89;42.18;101031.25;5074724;28;20029;-51
2022/09/09 05:56:28;;;;;;;6.25;1.90;;;;;;;25.88;42.18;101030.34;5073853;28;20040;-51
2022/09/09 05:58:57;;;;;;;7.07;1.83;;;;;;;25.88;42.22;101019.84;5074567;28;20536;-50
2022/09/09 06:01:29;;;;;;;6.22;2.15;;;;;;;25.90;41.95;101036.50;5074614;28;20105;-51
2022/09/09 06:03:58;;;;;;;8.13;1.95;;;;;;;25.94;41.83;101025.16;5056894;28;20032;-50
2022/09/09 06:06:31;;;;;;;7.25;2.22;;;;;;;25.94;41.95;101037.38;5074849;28;20048;-47
2022/09/09 06:09:00;;;;;;;6.20;2.25;;;;;;;25.97;41.83;101033.91;5073769;28;20036;-47
2022/09/09 06:11:33;;;;;;;10.45;2.83;;;;;;;25.88;42.11;101032.97;5074272;28;20454;-48
2022/09/09 06:14:02;;;;;;;9.77;2.22;;;;;;;25.93;42.00;101038.25;5073736;28;20032;-50
2022/09/09 06:16:33;;;;;;;7.35;2.13;;;;;;;25.91;42.19;101037.38;5074229;28;20027;-50
2022/09/09 06:19:03;;;;;;;8.85;2.15;;;;;;;25.84;42.26;101033.81;5056207;28;20034;-50
2022/09/09 06:21:36;;;;;;;8.32;2.22;;;;;;;25.93;42.11;101036.53;5073872;28;20121;-50
2022/09/09 06:24:05;;;;;;;5.88;1.60;;;;;;;25.93;42.02;101048.78;5074109;28;20082;-47
2022/09/09 06:26:35;;;;;;;7.90;2.05;;;;;;;25.98;41.93;101052.31;5055844;28;20032;-49
2022/09/09 06:29:05;;;;;;;9.35;2.30;;;;;;;25.94;41.96;101059.31;5073341;28;20497;-49
2022/09/09 06:31:36;;;;;;;11.05;2.47;;;;;;;25.86;42.19;101052.25;5074062;28;20099;-50
2022/09/09 06:34:07;;;;;;;4.97;1.55;;;;;;;25.93;42.29;101059.28;5073634;28;20036;-51
2022/09/09 06:36:37;;;;;;;6.63;1.90;;;;;;;25.92;42.15;101057.53;5073868;28;20025;-48
2022/09/09 06:39:06;;;;;;;9.18;2.40;;;;;;;26.01;42.12;101067.22;5073639;28;20032;-51
2022/09/09 06:41:35;;;;;;;9.00;2.33;;;;;;;25.82;41.99;101051.31;5073540;28;20479;-49
2022/09/09 06:44:04;;;;;;;6.32;1.65;;;;;;;25.93;42.06;101073.31;5073767;28;20027;-46
2022/09/09 06:46:33;;;;;;;6.10;2.00;;;;;;;25.98;42.09;101069.84;5073299;28;20391;-46
2022/09/09 06:49:02;;;;;;;8.50;2.10;;;;;;;25.99;41.64;101079.47;5073401;28;20048;-47
2022/09/09 06:51:32;;;;;;;7.30;2.00;;;;;;;25.90;42.16;101077.66;5073381;28;20039;-47
2022/09/09 06:54:02;;;;;;;8.25;2.15;;;;;;;25.93;42.08;101086.47;5073430;28;20047;-47
2022/09/09 06:56:33;;;;;;;9.10;2.50;;;;;;;25.92;42.29;101083.81;5073701;28;20341;-49
2022/09/09 06:59:04;;;;;;;8.57;2.15;;;;;;;25.92;42.46;101079.44;5055371;28;20082;-48
2022/09/09 07:01:35;;;;;;;5.97;1.90;;;;;;;25.94;42.14;101085.59;5073222;28;20032;-48
2022/09/09 07:04:07;;;;;;;8.00;2.10;;;;;;;25.97;42.27;101086.50;5073388;28;20028;-47
2022/09/09 07:06:39;;;;;;;8.63;2.50;;;;;;;25.86;42.30;101079.38;5055949;28;20103;-47
2022/09/09 07:09:09;;;;;;;7.80;2.13;;;;;;;25.90;42.45;101077.66;5073057;28;20379;-50
2022/09/09 07:11:43;;;;;;;6.15;1.70;;;;;;;25.87;42.72;101082.91;5072937;28;20031;-47
2022/09/09 07:14:13;;;;;;;7.30;1.85;;;;;;;25.98;41.94;101075.97;5073104;28;20043;-46
2022/09/09 07:16:43;;;;;;;10.27;2.55;;;;;;;26.01;42.23;101080.34;5073022;28;20021;-47
2022/09/09 07:19:15;;;;;;;8.38;2.58;;;;;;;26.02;42.44;101088.28;5073066;28;20045;-47
2022/09/09 07:21:44;;;;;;;10.85;2.78;;;;;;;26.01;42.56;101096.13;5054917;28;20032;-50
2022/09/09 07:24:13;;;;;;;11.20;3.17;;;;;;;25.95;42.42;101091.72;5072990;28;20028;-46
2022/09/09 07:26:42;;;;;;;6.78;2.00;;;;;;;25.97;42.68;101092.59;5073206;28;20029;-47
2022/09/09 07:29:13;;;;;;;9.98;2.22;;;;;;;25.96;42.54;101090.84;5055154;28;20476;-48
2022/09/09 07:31:42;;;;;;;7.88;2.35;;;;;;;25.99;42.94;101097.88;5072941;28;20487;-48
2022/09/09 07:34:10;;;;;;;10.52;2.33;;;;;;;25.95;42.73;101099.59;5055306;28;20095;-50
2022/09/09 07:36:41;;;;;;;12.65;2.63;;;;;;;25.97;42.58;101097.00;5072730;28;20036;-51
2022/09/09 07:39:12;;;;;;;9.52;2.60;;;;;;;25.96;42.79;101100.50;5073102;28;20024;-47
2022/09/09 07:41:43;;;;;;;10.60;2.25;;;;;;;26.01;42.67;101101.38;5054294;28;20025;-46
2022/09/09 07:44:15;;;;;;;19.45;2.67;;;;;;;26.03;42.53;101105.81;5072564;28;20396;-50
2022/09/09 07:46:45;;;;;;;7.22;2.05;;;;;;;25.90;42.85;101085.53;5072475;28;20510;-51
2022/09/09 07:49:13;;;;;;;9.05;2.15;;;;;;;25.93;43.20;101094.34;5072913;28;20051;-49
2022/09/09 07:51:44;;;;;;;11.38;2.63;;;;;;;25.88;43.00;101096.06;5072626;28;20083;-48
2022/09/09 07:54:14;;;;;;;14.27;3.00;;;;;;;25.93;43.17;101103.97;5072275;28;20115;-51
2022/09/09 07:56:43;;;;;;;12.18;3.17;;;;;;;25.99;42.98;101108.38;5072593;28;20025;-50
2022/09/09 07:59:12;;;;;;;9.85;2.95;;;;;;;25.99;42.71;101103.13;5072263;28;20079;-50
2022/09/09 08:01:43;;;;;;;16.83;3.17;;;;;;;25.92;43.08;101110.09;5072729;28;20378;-51
2022/09/09 08:04:15;;;;;;;13.20;2.90;;;;;;;25.99;42.72;101109.28;5072613;28;20020;-48
2022/09/09 08:06:46;;;;;;;9.95;2.80;;;;;;;25.98;43.05;101111.91;5055074;28;20483;-51
2022/09/09 08:09:15;;;;;;;11.30;2.85;;;;;;;25.99;42.79;101106.66;5038117;28;20036;-52
2022/09/09 08:11:44;;;;;;;13.40;2.78;;;;;;;25.93;43.06;101088.19;5072305;28;20012;-50
2022/09/09 08:14:13;;;;;;;10.73;2.22;;;;;;;26.09;42.75;101118.09;5072378;28;20029;-49
2022/09/09 08:16:44;;;;;;;9.40;2.53;;;;;;;26.07;42.66;101118.06;5072171;28;20025;-51
2022/09/09 08:19:14;;;;;;;11.15;2.60;;;;;;;26.06;42.76;101115.44;5072195;28;20056;-51
2022/09/09 08:21:44;;;;;;;10.30;2.45;;;;;;;25.99;42.89;101113.63;5054396;28;20431;-49
2022/09/09 08:24:14;;;;;;;6.90;2.00;;;;;;;25.96;42.96;101118.91;5072005;28;20024;-48
2022/09/09 08:26:45;;;;;;;13.02;2.83;;;;;;;25.88;43.02;101121.47;5072549;28;20115;-50
2022/09/09 08:29:14;;;;;;;11.77;2.35;;;;;;;25.91;42.91;101129.34;5072399;28;20025;-50
2022/09/09 08:31:45;;;;;;;9.32;2.30;;;;;;;25.94;42.79;101143.41;5072537;28;20020;-49
2022/09/09 08:34:14;;;;;;;6.28;1.95;;;;;;;25.97;42.73;101136.44;5072313;28;20028;-47
2022/09/09 08:36:45;;;;;;;8.23;2.03;;;;;;;25.94;42.95;101139.91;5072379;28;20035;-51
2022/09/09 08:39:16;;;;;;;6.82;1.70;;;;;;;25.92;43.01;101149.50;5072574;28;20060;-47
2022/09/09 08:42:08;;;;;;;4.93;1.40;;;;;;;25.89;43.08;101144.25;5072070;28;20495;-51
2022/09/09 08:44:55;;;;;;;6.65;2.03;;;;;;;25.91;42.74;101148.66;5064563;28;20036;-51
2022/09/09 08:47:36;;;;;;;4.93;1.67;;;;;;;25.91;43.06;101155.63;5062484;28;20445;-47
2022/09/09 08:50:19;;;;;;;6.00;1.67;;;;;;;25.85;42.83;101147.72;5054614;28;20085;-50
2022/09/09 08:52:53;;;;;;;6.68;1.98;;;;;;;25.85;43.05;101161.72;5074421;28;20024;-48
2022/09/09 08:55:59;;;;;;;7.30;1.60;;;;;;;25.90;42.65;101160.03;5058127;28;20067;-48
2022/09/09 08:58:29;;;;;;;8.40;1.60;;;;;;;25.97;42.92;101170.59;5074066;28;20475;-48
2022/09/09 09:01:36;;;;;;;5.82;1.58;;;;;;;25.91;42.84;101163.53;5075448;28;20036;-47
2022/09/09 09:04:23;;;;;;;5.78;1.75;;;;;;;25.98;42.79;101182.88;5064447;28;20060;-47
2022/09/09 09:07:20;;;;;;;4.03;1.35;;;;;;;25.97;42.67;101184.59;5068769;28;20107;-53
2022/09/09 09:09:52;;;;;;;5.78;1.30;;;;;;;26.03;42.49;101183.78;5073772;28;20035;-50
2022/09/09 09:12:22;;;;;;;6.32;1.45;;;;;;;26.01;42.81;101186.41;5081149;28;20102;-51
2022/09/09 09:14:51;;;;;;;11.35;2.53;;;;;;;26.01;42.97;101188.13;5047392;28;20035;-53
2022/09/09 09:17:21;;;;;;;7.75;1.95;;;;;;;26.01;42.86;101188.13;5082247;28;20103;-50
2022/09/09 09:19:49;;;;;;;6.50;2.28;;;;;;;26.06;42.93;101197.81;5082525;28;20137;-51
2022/09/09 09:22:40;;;;;;;13.07;2.38;;;;;;;26.09;43.08;101186.47;5079417;28;20020;-51
2022/09/09 09:25:21;;;;;;;12.32;2.38;;;;;;;26.07;43.42;101196.06;5067153;28;20139;-46
2022/09/09 09:27:54;;;;;;;6.38;2.10;;;;;;;26.08;43.31;101187.31;5078028;28;20039;-48
2022/09/09 09:30:25;;;;;;;6.90;1.98;;;;;;;26.06;43.48;101203.06;5081190;28;20383;-47
2022/09/09 09:33:20;;;;;;;10.98;2.75;;;;;;;26.05;43.63;101197.81;5078089;28;20028;-46
2022/09/09 09:35:50;;;;;;;11.87;2.73;;;;;;;25.99;43.40;101169.72;5075360;28;20399;-47
2022/09/09 09:39:16;;;;;;;10.73;2.88;;;;;;;26.11;43.71;101196.97;5085336;28;20032;-47
2022/09/09 09:41:45;;;;;;;10.43;2.75;;;;;;;26.14;43.50;101213.72;5081627;28;20029;-48
2022/09/09 09:44:33;;;;;;;11.07;2.70;;;;;;;26.13;43.83;101218.94;5079223;28;20024;-52
2022/09/09 09:47:20;;;;;;;9.73;2.70;;;;;;;26.05;44.07;101221.47;5077835;28;20434;-49
2022/09/09 09:49:59;;;;;;;11.13;2.35;;;;;;;26.07;43.96;101225.88;5080173;28;20356;-50
2022/09/09 09:52:28;;;;;;;13.07;2.72;;;;;;;26.10;43.87;101225.03;5077496;28;20035;-47
2022/09/09 09:54:59;;;;;;;10.80;2.67;;;;;;;26.07;43.85;101217.13;5074798;28;20025;-50
2022/09/09 09:57:30;;;;;;;9.82;2.20;;;;;;;26.14;44.01;101237.38;5077234;28;20077;-50
2022/09/09 10:00:19;;;;;;;8.15;1.63;;;;;;;26.11;43.77;101233.78;5079057;28;20717;-51
2022/09/09 10:02:48;;;;;;;8.13;1.92;;;;;;;26.11;43.50;101236.41;5082705;28;20562;-51
2022/09/09 10:05:21;;;;;;;7.28;1.98;;;;;;;26.14;43.44;101236.47;5078724;28;20458;-49
2022/09/09 10:08:11;;;;;;;7.93;2.00;;;;;;;26.09;43.50;101247.78;5082398;28;20024;-48
2022/09/09 10:10:50;;;;;;;7.75;1.83;;;;;;;26.10;43.56;101238.19;5079372;28;20025;-51
2022/09/09 10:13:27;;;;;;;6.45;2.55;;;;;;;26.06;43.60;101231.13;5083764;28;20040;-49
2022/09/09 10:15:55;;;;;;;5.70;1.77;;;;;;;26.18;43.54;101239.13;5080199;28;20099;-50
2022/09/09 10:18:39;;;;;;;7.30;1.60;;;;;;;26.15;43.44;101252.25;5080349;28;20470;-47
2022/09/09 10:21:15;;;;;;;5.63;1.63;;;;;;;26.14;43.38;101257.50;5078314;28;20036;-50
2022/09/09 10:24:22;;;;;;;9.48;1.92;;;;;;;26.09;43.49;101268.81;5074618;28;20119;-50
2022/09/09 10:27:07;;;;;;;5.47;1.80;;;;;;;26.08;43.35;101258.31;5102549;28;20036;-50
2022/09/09 10:29:43;;;;;;;5.28;1.27;;;;;;;26.13;43.48;101259.28;5098395;28;20483;-50
2022/09/09 10:32:41;;;;;;;8.50;1.60;;;;;;;26.13;43.60;101267.16;5103842;28;20497;-49
2022/09/09 10:35:15;;;;;;;4.20;1.30;;;;;;;26.15;43.30;101268.03;5089892;28;20487;-49
2022/09/09 10:38:06;;;;;;;6.75;1.83;;;;;;;26.11;43.24;101268.91;5103310;28;20032;-47
2022/09/09 10:41:02;;;;;;;8.68;1.75;;;;;;;26.12;43.33;101262.78;5075846;28;20097;-48
2022/09/09 10:43:55;;;;;;;4.65;2.15;;;;;;;26.12;43.57;101267.13;5077626;28;20104;-50
2022/09/09 10:46:29;;;;;;;4.97;1.52;;;;;;;26.14;43.28;101261.03;5076576;28;20039;-49
2022/09/09 10:49:24;;;;;;;4.65;1.27;;;;;;;26.13;43.27;101251.38;5083975;28;20032;-46
2022/09/09 10:51:56;;;;;;;8.38;1.58;;;;;;;26.23;43.19;101262.84;5099102;28;20032;-47
2022/09/09 10:54:28;;;;;;;6.00;1.58;;;;;;;26.18;43.27;101257.53;5084432;28;20020;-51
2022/09/09 10:57:05;;;;;;;5.72;1.40;;;;;;;26.17;43.44;101260.16;5101799;28;20027;-47
2022/09/09 10:59:40;;;;;;;3.05;1.35;;;;;;;26.15;43.43;101252.25;5100294;28;20066;-49
2022/09/09 11:02:29;;;;;;;4.22;1.10;;;;;;;26.20;43.27;101261.06;5097321;28;20028;-51
2022/09/09 11:05:16;;;;;;;6.20;1.63;;;;;;;26.26;43.43;101262.00;5096822;28;20034;-46
2022/09/09 11:07:55;;;;;;;6.75;1.50;;;;;;;26.26;43.27;101251.47;5083118;28;20132;-47
2022/09/09 11:10:34;;;;;;;5.57;1.58;;;;;;;26.26;43.14;101251.47;5084568;28;20027;-46
2022/09/09 11:13:05;;;;;;;5.78;1.05;;;;;;;26.36;43.20;101253.28;5084649;28;20024;-48
2022/09/09 11:15:41;;;;;;;5.68;1.48;;;;;;;26.35;43.29;101256.78;5082729;28;20036;-46
2022/09/09 11:18:15;;;;;;;4.30;1.25;;;;;;;26.35;43.45;101260.31;5092349;28;20497;-46
2022/09/09 11:20:43;;;;;;;;;;;;;;;26.43;43.28;101264.75;5097876;28;20436;-46
2022/09/09 11:23:21;;;;;;;7.55;1.80;;;;;;;26.41;43.29;101264.75;5083576;28;19918;-46
2022/09/09 11:25:56;;;;;;;7.28;1.50;;;;;;;26.42;43.55;101261.25;5058993;28;20044;-46
2022/09/09 11:28:28;;;;;;;4.68;1.38;;;;;;;26.37;43.67;101255.06;5081168;28;20021;-46
2022/09/09 11:31:08;;;;;;;6.70;1.52;;;;;;;26.38;43.34;101249.84;5077086;28;20023;-47
2022/09/09 11:34:14;;;;;;;4.28;1.10;;;;;;;26.41;43.84;101259.47;5078744;28;20107;-45
2022/09/09 11:37:20;;;;;;;5.97;1.88;;;;;;;26.46;43.77;101252.50;5077845;28;20444;-46
2022/09/09 11:40:02;;;;;;;4.95;2.10;;;;;;;26.48;43.77;101256.00;5076409;28;20086;-47
2022/09/09 11:42:30;;;;;;;6.15;1.85;;;;;;;26.48;44.02;101258.63;5074500;28;20376;-48
2022/09/09 11:44:59;;;;;;;4.07;1.60;;;;;;;26.45;44.10;101256.00;5079547;28;20455;-51
2022/09/09 11:47:30;;;;;;;10.13;1.70;;;;;;;26.38;44.35;101244.56;5080896;28;20028;-51
2022/09/09 11:50:18;;;;;;;6.97;1.88;;;;;;;26.48;44.20;101263.91;5079973;28;20082;-49
2022/09/09 11:52:49;;;;;;;4.55;1.58;;;;;;;26.50;43.95;101256.91;5080336;28;20562;-51
2022/09/09 11:55:37;;;;;;;6.03;1.58;;;;;;;26.44;44.20;101264.78;5078048;28;20059;-50
2022/09/09 11:58:16;;;;;;;4.68;1.20;;;;;;;26.50;43.86;101264.78;5078699;28;20074;-50